• Join FlightAware (Why Join?)
  • Login
  • US Flag 
01:46AM EDT


 

Airport Tracker/Info


-or-


 

Live Flight TrackerFlight Track Log ✈ FD412 ✈ 22-Jun-2013 ✈ YBTL / TSV - YBMK / MKY

Flight Track Log - Related Links

Times and Time Zones

All times are in EDT time to prevent confusion due to time zone crossing. See the FD412 flight status page for this flight to view local times or setup timezone preferences in your user account.

Time Position Orientation Groundspeed Altitude Reporting Facility
EDT Latitude Longitude Course Direction KTS MPH feet Rate Location/Type
05:12AM -19.2420 146.7720 25° Northeast 127 146 100  Level FlightAware
05:13AM -19.2269 146.7790 180° South 142 163 900 1,560 Climbing Aus ATC (RADAR)
05:13AM -19.2270 146.7790 24° Northeast 141 162 800 1,440 Descending FlightAware
05:13AM -19.2070 146.7870 24° Northeast 155 178 1,700 2,340 Climbing FlightAware
05:13AM -19.2032 146.7883 24° Northeast 158 182 2,100 1,980 Climbing Aus ATC (RADAR)
05:13AM -19.2000 146.7900 22° Northeast 150 173 2,000 900 Descending FlightAware
05:14AM -19.1900 146.8010 46° Northeast 161 185 2,500 1,440 Climbing FlightAware
05:14AM -19.1900 146.8050 90° East 160 184 2,600 1,560 Climbing FlightAware
05:14AM -19.1940 146.8200 106° East 165 190 3,200 1,680 Climbing FlightAware
05:14AM -19.2010 146.8390 111° Southeast 160 184 3,900 1,620 Climbing FlightAware
05:15AM -19.2100 146.8510 128° Southeast 162 186 4,400 1,560 Climbing FlightAware
05:15AM -19.2280 146.8790 124° Southeast 173 199 5,500 1,560 Climbing FlightAware
05:16AM -19.2350 146.8900 124° Southeast 179 206 5,900 1,560 Climbing FlightAware
05:16AM -19.2500 146.9130 125° Southeast 180 207 6,700 1,620 Climbing FlightAware
05:17AM -19.2620 146.9310 125° Southeast 182 209 7,400 1,260 Climbing FlightAware
05:17AM -19.2710 146.9450 124° Southeast 193 222 7,800 1,620 Climbing FlightAware
05:18AM -19.2974 146.9855 124° Southeast 194 223 9,300 1,860 Climbing Aus ATC (RADAR)
05:18AM -19.2990 146.9880 124° Southeast 197 227 9,200 1,140 Descending FlightAware
05:18AM -19.3130 147.0100 124° Southeast 200 230 9,900 1,560 Climbing FlightAware
05:19AM -19.3340 147.0420 125° Southeast 203 234 11,000 1,500 Climbing FlightAware
05:19AM -19.3532 147.0712 125° Southeast 207 238 11,800 1,140 Climbing Aus ATC (RADAR)
05:20AM -19.3570 147.0780 125° Southeast 215 247 11,800 960 Level FlightAware
05:20AM -19.3820 147.1150 126° Southeast 229 264 12,600 1,500 Climbing FlightAware
05:21AM -19.4042 147.1481 126° Southeast 230 265 13,700 1,680 Climbing Aus ATC (RADAR)
05:21AM -19.4060 147.1510 126° Southeast 224 258 13,700 1,260 Level FlightAware
05:22AM -19.4330 147.1930 124° Southeast 223 257 14,800 1,200 Climbing FlightAware
05:22AM -19.4590 147.2330 125° Southeast 235 270 15,500 900 Climbing FlightAware
05:23AM -19.4850 147.2720 125° Southeast 249 287 16,100 1,080 Climbing FlightAware
05:24AM -19.5100 147.3120 124° Southeast 249 287 17,000 1,560 Climbing FlightAware
05:24AM -19.5348 147.3493 124° Southeast 247 284 18,100 1,620 Climbing Aus ATC (RADAR)
05:24AM -19.5390 147.3560 124° Southeast 237 273 18,200 600 Climbing FlightAware
05:25AM -19.5540 147.3800 124° Southeast 238 274 18,800 1,020 Climbing FlightAware
05:26AM -19.6000 147.4500 125° Southeast 256 295 19,900 1,260 Climbing FlightAware
05:27AM -19.6310 147.4970 125° Southeast 258 297 20,600 900 Climbing FlightAware
05:27AM -19.6613 147.5440 125° Southeast 269 310 21,200 540 Climbing Aus ATC (RADAR)
05:27AM -19.6600 147.5410 125° Southeast 283 326 21,000  Descending FlightAware
05:28AM -19.6891 147.5863 125° Southeast 297 342 21,200  Climbing Aus ATC (RADAR)
05:28AM -19.6950 147.5950 125° Southeast 308 354 21,000 -300 Descending FlightAware
05:29AM -19.7240 147.6510 125° Southeast 317 365 21,000 240 Level FlightAware
05:29AM -19.7255 147.6527 125° Southeast 313 360 21,200 360 Climbing Aus ATC (RADAR)
05:29AM -19.7478 147.6945 125° Southeast 319 367 21,200 -300 Level Aus ATC (RADAR)
05:30AM -19.7570 147.7120 125° Southeast 328 377 21,000  Descending FlightAware
05:30AM -19.7905 147.7606 125° Southeast 325 374 21,200  Climbing Aus ATC (RADAR)
05:30AM -19.7940 147.7620 125° Southeast 320 368 21,000 -300 Descending FlightAware
05:31AM -19.8380 147.8070 136° Southeast 322 371 21,000  Level FlightAware
05:32AM -19.8880 147.8580 136° Southeast 323 372 21,000  Level FlightAware
05:32AM -19.9320 147.9030 136° Southeast 323 372 21,000 240 Level FlightAware
05:32AM -19.9388 147.9108 136° Southeast 327 376 21,200  Climbing Aus ATC (RADAR)
05:33AM -19.9740 147.9470 135° Southeast 325 374 21,000 -180 Descending FlightAware
05:34AM -20.0140 147.9890 135° Southeast 325 374 21,000  Level FlightAware
05:34AM -20.0540 148.0310 135° Southeast 325 374 21,000 120 Level FlightAware
05:35AM -20.1028 148.0809 135° Southeast 329 379 21,200  Climbing Aus ATC (RADAR)
05:36AM -20.1280 148.1110 135° Southeast 325 374 21,000 -180 Descending FlightAware
05:36AM -20.1820 148.1640 137° Southeast 329 379 21,000  Level FlightAware
05:37AM -20.2320 148.2160 136° Southeast 328 377 21,000  Level FlightAware
05:38AM -20.2740 148.2590 136° Southeast 328 377 21,000 120 Level FlightAware
05:38AM -20.3255 148.3130 136° Southeast 326 375 21,200  Climbing Aus ATC (RADAR)
05:38AM -20.3230 148.3100 136° Southeast 329 379 21,000  Descending FlightAware
05:39AM -20.3585 148.3469 136° Southeast 330 380 21,200  Climbing Aus ATC (RADAR)
05:39AM -20.3670 148.3560 136° Southeast 330 380 21,000 -540 Descending FlightAware
05:40AM -20.4060 148.3970 136° Southeast 318 366 20,800 -180 Descending FlightAware
05:40AM -20.4124 148.4025 136° Southeast 318 366 20,900 -1,440 Climbing Aus ATC (RADAR)
05:40AM -20.4495 148.4409 136° Southeast 319 367 19,900 -2,100 Descending Aus ATC (RADAR)
05:40AM -20.4530 148.4450 136° Southeast 319 367 19,500 -1,740 Descending FlightAware
05:41AM -20.4971 148.4893 136° Southeast 314 361 18,600 -1,740 Descending Aus ATC (RADAR)
05:41AM -20.5000 148.4930 136° Southeast 315 362 18,200 -1,980 Descending FlightAware
05:42AM -20.5420 148.5360 136° Southeast 311 358 17,100 -1,680 Descending FlightAware
05:43AM -20.5870 148.5830 136° Southeast 299 344 15,900 -1,500 Descending FlightAware
05:43AM -20.6230 148.6200 136° Southeast 293 337 15,000 -1,500 Descending FlightAware
05:44AM -20.6630 148.6630 135° Southeast 290 334 13,900 -1,620 Descending FlightAware
05:45AM -20.7010 148.7020 135° Southeast 286 329 12,900 -1,440 Descending FlightAware
05:45AM -20.7097 148.7106 135° Southeast 286 329 12,900 -1,440 Level Aus ATC (RADAR)
05:45AM -20.7424 148.7446 135° Southeast 280 322 12,000  Descending Aus ATC (RADAR)
05:45AM -20.7420 148.7460 135° Southeast 286 329 12,900 780 Climbing FlightAware
05:46AM -20.7850 148.7920 135° Southeast 286 329 12,900 -2,220 Level FlightAware
05:47AM -20.8375 148.8425 135° Southeast 268 308 9,500 -2,580 Descending Aus ATC (RADAR)
05:49AM -20.9241 148.9330 136° Southeast 264 304 7,000 -1,440 Descending Aus ATC (RADAR)
05:49AM -20.9662 148.9782 135° Southeast 256 295 5,900 -1,380 Descending Aus ATC (RADAR)
05:50AM -20.9939 149.0070 136° Southeast 239 275 5,100 -1,140 Descending Aus ATC (RADAR)
05:51AM -21.0291 149.0445 135° Southeast 172 198 4,200 -900 Descending Aus ATC (RADAR)
05:52AM -21.0474 149.0644 135° Southeast 163 188 3,700 -900 Descending Aus ATC (RADAR)
05:53AM -21.0833 149.1021 136° Southeast 164 189 2,700 -900 Descending Aus ATC (RADAR)
05:53AM -21.0990 149.1185 136° Southeast 138 159 2,200 -780 Descending Aus ATC (RADAR)
05:54AM -21.1207 149.1445 132° Southeast 122 140 1,500 -900 Descending Aus ATC (RADAR)
05:55AM -21.1312 149.1567 133° Southeast 111 128 900 -900 Descending Aus ATC (RADAR)
05:56AM -21.1571 149.1720 151° Southeast 102 117 200 -720 Descending Aus ATC (RADAR)